createdAt,value
2023-02-23T00:01:53.207Z,100.00
2023-02-23T00:04:20.105Z,100.00
2023-02-23T00:06:47.089Z,100.00
2023-02-23T00:09:22.884Z,100.00
2023-02-23T00:11:55.228Z,100.00
2023-02-23T00:14:27.351Z,100.00
2023-02-23T00:16:55.697Z,100.00
2023-02-23T00:19:24.656Z,100.00
2023-02-23T00:21:52.061Z,100.00
2023-02-23T00:24:22.004Z,100.00
2023-02-23T00:26:51.466Z,100.00
2023-02-23T00:29:22.815Z,100.00
2023-02-23T00:31:51.183Z,100.00
2023-02-23T00:34:23.759Z,100.00
2023-02-23T00:36:55.473Z,100.00
2023-02-23T00:39:29.173Z,100.00
2023-02-23T00:41:56.647Z,100.00
2023-02-23T00:44:24.601Z,100.00
2023-02-23T00:46:52.423Z,100.00
2023-02-23T00:49:21.105Z,100.00
2023-02-23T00:51:48.119Z,100.00
2023-02-23T00:54:17.195Z,100.00
2023-02-23T00:56:45.563Z,100.00
2023-02-23T00:59:13.389Z,100.00
2023-02-23T01:01:44.443Z,100.00
2023-02-23T01:04:13.215Z,100.00
2023-02-23T01:06:41.421Z,100.00
2023-02-23T01:09:16.228Z,100.00
2023-02-23T01:11:46.561Z,100.00
2023-02-23T01:14:14.779Z,100.00
2023-02-23T01:16:41.313Z,100.00
2023-02-23T01:19:08.100Z,100.00
2023-02-23T01:21:37.908Z,100.00
2023-02-23T01:24:05.776Z,100.00
2023-02-23T01:26:38.032Z,100.00
2023-02-23T01:29:14.266Z,100.00
2023-02-23T01:31:44.659Z,100.00
2023-02-23T01:34:12.919Z,100.00
2023-02-23T01:36:41.072Z,100.00
2023-02-23T01:39:12.277Z,100.00
2023-02-23T01:41:43.640Z,100.00
2023-02-23T01:44:13.462Z,100.00
2023-02-23T01:46:43.645Z,100.00
2023-02-23T01:49:17.895Z,100.00
2023-02-23T01:52:02.058Z,100.00
2023-02-23T01:54:33.550Z,100.00
2023-02-23T01:57:02.764Z,100.00
2023-02-23T01:59:35.090Z,100.00
2023-02-23T02:02:05.096Z,100.00
2023-02-23T02:04:44.408Z,100.00
2023-02-23T02:07:17.667Z,100.00
2023-02-23T02:10:08.593Z,100.00
2023-02-23T02:12:35.472Z,100.00
2023-02-23T02:15:05.506Z,100.00
2023-02-23T02:17:39.072Z,100.00
2023-02-23T02:20:26.587Z,100.00
2023-02-23T02:23:03.124Z,100.00
2023-02-23T02:25:49.933Z,100.00
2023-02-23T02:28:30.091Z,100.00
2023-02-23T02:31:06.678Z,100.00
2023-02-23T02:33:58.247Z,100.00
2023-02-23T02:36:50.905Z,100.00
2023-02-23T02:39:38.374Z,100.00
2023-02-23T02:42:22.858Z,100.00
2023-02-23T02:45:08.134Z,100.00
2023-02-23T02:47:43.061Z,100.00
2023-02-23T02:50:21.374Z,100.00
2023-02-23T02:53:04.007Z,100.00
2023-02-23T02:55:34.638Z,100.00
2023-02-23T02:58:07.831Z,100.00
2023-02-23T03:00:59.949Z,100.00
2023-02-23T03:04:04.764Z,100.00
2023-02-23T03:07:08.461Z,100.00
2023-02-23T03:10:16.665Z,100.00
2023-02-23T03:13:21.092Z,100.00
2023-02-23T03:16:38.459Z,100.00
2023-02-23T03:19:34.545Z,100.00
2023-02-23T03:22:32.112Z,100.00
2023-02-23T03:25:24.513Z,100.00
2023-02-23T03:28:12.163Z,100.00
2023-02-23T03:31:18.177Z,100.00
2023-02-23T03:34:16.028Z,100.00
2023-02-23T03:37:09.202Z,100.00
2023-02-23T03:40:01.463Z,100.00
2023-02-23T03:42:52.931Z,100.00
2023-02-23T03:45:42.214Z,100.00
2023-02-23T03:48:30.227Z,100.00
2023-02-23T03:51:19.821Z,100.00
2023-02-23T03:54:18.169Z,100.00
2023-02-23T03:57:07.591Z,100.00
2023-02-23T03:59:58.501Z,100.00
2023-02-23T04:02:45.485Z,100.00
2023-02-23T04:05:36.695Z,100.00
2023-02-23T04:08:25.059Z,100.00
2023-02-23T04:11:19.723Z,100.00
2023-02-23T04:13:52.139Z,100.00
2023-02-23T04:16:19.841Z,100.00
2023-02-23T04:18:46.444Z,100.00
2023-02-23T04:21:13.390Z,100.00
2023-02-23T04:23:42.387Z,100.00
2023-02-23T04:26:08.978Z,100.00
2023-02-23T04:28:35.541Z,100.00
2023-02-23T04:31:02.590Z,100.00
2023-02-23T04:33:29.216Z,100.00
2023-02-23T04:35:56.413Z,100.00
2023-02-23T04:38:23.411Z,100.00
2023-02-23T04:40:50.163Z,100.00
2023-02-23T04:43:20.090Z,100.00
2023-02-23T04:45:46.771Z,100.00
2023-02-23T04:48:13.472Z,100.00
2023-02-23T04:50:40.136Z,100.00
2023-02-23T04:53:07.017Z,100.00
2023-02-23T04:55:34.020Z,100.00
2023-02-23T04:58:02.076Z,100.00
2023-02-23T05:00:29.627Z,100.00
2023-02-23T05:02:57.237Z,100.00
2023-02-23T05:05:23.862Z,100.00
2023-02-23T05:07:50.690Z,100.00
2023-02-23T05:10:17.416Z,100.00
2023-02-23T05:12:44.160Z,100.00
2023-02-23T05:15:11.172Z,100.00
2023-02-23T05:17:42.056Z,100.00
2023-02-23T05:20:13.053Z,100.00
2023-02-23T05:22:39.883Z,100.00
2023-02-23T05:25:08.732Z,100.00
2023-02-23T05:27:37.081Z,100.00
2023-02-23T05:30:07.342Z,100.00
2023-02-23T05:32:34.658Z,100.00
2023-02-23T05:35:02.601Z,100.00
2023-02-23T05:37:29.424Z,100.00
2023-02-23T05:39:55.941Z,100.00
2023-02-23T05:42:22.600Z,100.00
2023-02-23T05:44:49.250Z,100.00
2023-02-23T05:47:16.028Z,100.00
2023-02-23T05:49:42.986Z,100.00
2023-02-23T05:52:09.755Z,100.00
2023-02-23T05:54:36.411Z,100.00
2023-02-23T05:57:03.206Z,100.00
2023-02-23T05:59:29.845Z,100.00
2023-02-23T06:01:56.480Z,100.00
2023-02-23T06:04:24.160Z,100.00
2023-02-23T06:06:50.973Z,100.00
2023-02-23T06:09:17.646Z,100.00
2023-02-23T06:11:44.631Z,100.00
2023-02-23T06:14:11.414Z,100.00
2023-02-23T06:16:38.337Z,100.00
2023-02-23T06:19:05.338Z,100.00
2023-02-23T06:21:32.651Z,100.00
2023-02-23T06:24:00.854Z,100.00
2023-02-23T06:26:27.688Z,100.00
2023-02-23T06:28:54.558Z,100.00
2023-02-23T06:31:21.939Z,100.00
2023-02-23T06:33:48.982Z,100.00
2023-02-23T06:36:15.744Z,100.00
2023-02-23T06:38:42.475Z,100.00
2023-02-23T06:41:10.475Z,100.00
2023-02-23T06:43:37.167Z,100.00
2023-02-23T06:46:04.672Z,100.00
2023-02-23T06:48:31.808Z,100.00
2023-02-23T06:51:00.137Z,100.00
2023-02-23T06:53:27.071Z,100.00
2023-02-23T06:55:53.799Z,100.00
2023-02-23T06:58:20.514Z,100.00
2023-02-23T07:00:47.461Z,100.00
2023-02-23T07:03:14.001Z,100.00
2023-02-23T07:05:41.087Z,100.00
2023-02-23T07:08:07.929Z,100.00
2023-02-23T07:10:35.074Z,100.00
2023-02-23T07:13:01.859Z,100.00
2023-02-23T07:15:28.550Z,100.00
2023-02-23T07:17:55.388Z,100.00
2023-02-23T07:20:22.247Z,100.00
2023-02-23T07:22:48.962Z,100.00
2023-02-23T07:25:15.646Z,100.00
2023-02-23T07:27:45.376Z,100.00
2023-02-23T07:30:12.675Z,100.00
2023-02-23T07:32:39.242Z,100.00
2023-02-23T07:35:06.647Z,100.00
2023-02-23T07:37:33.539Z,100.00
2023-02-23T07:40:01.268Z,100.00
2023-02-23T07:42:28.527Z,100.00
2023-02-23T07:44:55.070Z,100.00
2023-02-23T07:47:23.048Z,100.00
2023-02-23T07:49:49.785Z,100.00
2023-02-23T07:52:20.033Z,100.00
2023-02-23T07:54:46.691Z,100.00
2023-02-23T07:57:13.454Z,100.00
2023-02-23T07:59:40.287Z,100.00
2023-02-23T08:02:07.338Z,100.00
2023-02-23T08:04:34.239Z,100.00
2023-02-23T08:07:00.829Z,100.00
2023-02-23T08:09:27.457Z,100.00
2023-02-23T08:11:54.009Z,100.00
2023-02-23T08:14:24.094Z,100.00
2023-02-23T08:16:51.757Z,100.00
2023-02-23T08:19:18.753Z,100.00
2023-02-23T08:21:45.329Z,100.00
2023-02-23T08:24:12.055Z,100.00
2023-02-23T08:26:38.692Z,100.00
2023-02-23T08:29:05.408Z,100.00
2023-02-23T08:31:32.389Z,100.00
2023-02-23T08:33:59.093Z,100.00
2023-02-23T08:36:26.065Z,100.00
2023-02-23T08:38:54.507Z,100.00
2023-02-23T08:41:21.803Z,100.00
2023-02-23T08:43:48.869Z,100.00
2023-02-23T08:46:18.616Z,100.00
2023-02-23T08:48:46.683Z,100.00
2023-02-23T08:51:14.662Z,100.00
2023-02-23T08:53:41.422Z,100.00
2023-02-23T08:56:08.477Z,100.00
2023-02-23T08:58:36.267Z,100.00
2023-02-23T09:01:03.805Z,100.00
2023-02-23T09:03:31.035Z,100.00
2023-02-23T09:06:04.854Z,100.00
2023-02-23T09:08:34.452Z,100.00
2023-02-23T09:11:01.186Z,100.00
2023-02-23T09:13:27.942Z,100.00
2023-02-23T09:15:55.130Z,100.00
2023-02-23T09:18:24.135Z,100.00
2023-02-23T09:20:51.464Z,100.00
2023-02-23T09:23:18.147Z,100.00
2023-02-23T09:25:45.938Z,100.00
2023-02-23T09:28:15.114Z,100.00
2023-02-23T09:30:43.356Z,100.00
2023-02-23T09:33:10.086Z,100.00
2023-02-23T09:35:37.442Z,100.00
2023-02-23T09:38:06.634Z,100.00
2023-02-23T09:40:55.323Z,100.00
2023-02-23T09:43:50.927Z,100.00
2023-02-23T09:46:28.581Z,100.00
2023-02-23T09:48:59.148Z,100.00
2023-02-23T09:51:26.576Z,100.00
2023-02-23T09:53:59.550Z,100.00
2023-02-23T09:56:28.830Z,100.00
2023-02-23T09:58:55.819Z,100.00
2023-02-23T10:01:41.149Z,100.00
2023-02-23T10:04:19.880Z,100.00
2023-02-23T10:06:54.824Z,100.00
2023-02-23T10:09:48.954Z,100.00
2023-02-23T10:12:34.055Z,100.00
2023-02-23T10:15:14.243Z,100.00
2023-02-23T10:18:03.558Z,100.00
2023-02-23T10:20:39.434Z,100.00
2023-02-23T10:23:13.169Z,100.00
2023-02-23T10:25:54.341Z,100.00
2023-02-23T10:28:22.222Z,100.00
2023-02-23T10:30:50.476Z,100.00
2023-02-23T10:33:41.487Z,100.00
2023-02-23T10:36:24.280Z,100.00
2023-02-23T10:38:50.851Z,100.00
2023-02-23T10:41:17.866Z,100.00
2023-02-23T10:44:07.901Z,100.00
2023-02-23T10:46:44.187Z,100.00
2023-02-23T10:49:18.836Z,100.00
2023-02-23T10:51:45.871Z,100.00
2023-02-23T10:54:44.646Z,100.00
2023-02-23T10:57:25.468Z,100.00
2023-02-23T11:00:20.327Z,100.00
2023-02-23T11:02:48.213Z,100.00
2023-02-23T11:05:28.913Z,100.00
2023-02-23T11:08:19.846Z,100.00
2023-02-23T11:11:15.818Z,100.00
2023-02-23T11:13:46.667Z,100.00
2023-02-23T11:16:19.585Z,100.00
2023-02-23T11:19:07.767Z,100.00
2023-02-23T11:21:38.823Z,100.00
2023-02-23T11:24:24.649Z,100.00
2023-02-23T11:26:54.386Z,100.00
2023-02-23T11:29:40.526Z,100.00
2023-02-23T11:32:19.142Z,100.00
2023-02-23T11:34:49.222Z,100.00
2023-02-23T11:37:23.327Z,100.00
2023-02-23T11:40:01.287Z,100.00
2023-02-23T11:42:33.134Z,100.00
2023-02-23T11:45:04.560Z,100.00
2023-02-23T11:47:32.862Z,100.00
2023-02-23T11:49:59.738Z,100.00
2023-02-23T11:52:28.388Z,100.00
2023-02-23T11:55:00.481Z,100.00
2023-02-23T11:57:32.001Z,100.00
2023-02-23T11:59:59.924Z,100.00
2023-02-23T12:02:31.896Z,100.00
2023-02-23T12:05:17.196Z,100.00
2023-02-23T12:07:59.723Z,100.00
2023-02-23T12:10:51.994Z,100.00
2023-02-23T12:13:37.844Z,100.00
2023-02-23T12:16:08.618Z,100.00
2023-02-23T12:18:44.437Z,100.00
2023-02-23T12:21:40.355Z,100.00
2023-02-23T12:24:23.081Z,100.00
2023-02-23T12:27:13.001Z,100.00
2023-02-23T12:30:09.777Z,100.00
2023-02-23T12:32:49.140Z,100.00
2023-02-23T12:35:18.877Z,100.00
2023-02-23T12:37:51.275Z,100.00
2023-02-23T12:40:24.705Z,100.00
2023-02-23T12:43:19.506Z,100.00
2023-02-23T12:45:52.817Z,100.00
2023-02-23T12:48:56.335Z,100.00
2023-02-23T12:51:33.057Z,100.00
2023-02-23T12:53:59.780Z,99.20
2023-02-23T12:56:43.839Z,97.97
2023-02-23T12:59:26.545Z,100.00
2023-02-23T13:02:12.118Z,100.00
2023-02-23T13:04:44.765Z,99.53
2023-02-23T13:07:21.612Z,99.60
2023-02-23T13:09:57.324Z,96.12
2023-02-23T13:12:50.385Z,89.71
2023-02-23T13:15:47.811Z,86.28
2023-02-23T13:18:27.633Z,81.90
2023-02-23T13:21:21.924Z,80.19
2023-02-23T13:24:01.375Z,79.51
2023-02-23T13:26:30.860Z,71.28
2023-02-23T13:29:09.364Z,66.30
2023-02-23T13:31:38.532Z,60.92
2023-02-23T13:34:11.638Z,50.08
2023-02-23T13:36:40.691Z,50.01
2023-02-23T13:39:45.317Z,53.43
2023-02-23T13:42:58.732Z,52.90
2023-02-23T13:45:32.534Z,59.08
2023-02-23T13:48:04.731Z,60.15
2023-02-23T13:50:42.696Z,61.04
2023-02-23T13:53:36.722Z,64.33
2023-02-23T13:56:08.440Z,68.82
2023-02-23T13:58:35.883Z,73.18
2023-02-23T14:01:18.644Z,75.11
2023-02-23T14:03:55.595Z,77.59
2023-02-23T14:06:26.358Z,76.86
2023-02-23T14:09:00.967Z,78.07
2023-02-23T14:11:34.981Z,78.97
2023-02-23T14:14:03.456Z,80.28
2023-02-23T14:16:30.687Z,84.73
2023-02-23T14:19:12.872Z,90.32
2023-02-23T14:21:57.234Z,89.24
2023-02-23T14:24:27.496Z,90.62
2023-02-23T14:27:39.731Z,88.34
2023-02-23T14:30:10.679Z,84.33
2023-02-23T14:32:46.215Z,87.04
2023-02-23T14:35:34.587Z,87.85
2023-02-23T14:38:10.857Z,88.41
2023-02-23T14:40:43.133Z,88.36
2023-02-23T14:43:31.805Z,86.00
2023-02-23T14:46:01.009Z,87.93
2023-02-23T14:48:27.732Z,89.00
2023-02-23T14:51:16.412Z,89.28
2023-02-23T14:53:44.120Z,89.49
2023-02-23T14:56:26.194Z,90.12
2023-02-23T14:58:58.773Z,91.46
2023-02-23T15:01:41.898Z,91.11
2023-02-23T15:04:14.223Z,89.36
2023-02-23T15:06:42.489Z,88.45
2023-02-23T15:09:17.956Z,87.32
2023-02-23T15:11:48.602Z,85.98
2023-02-23T15:14:27.658Z,89.24
2023-02-23T15:16:56.739Z,77.32
2023-02-23T15:19:28.577Z,60.34
2023-02-23T15:21:57.585Z,55.59
2023-02-23T15:24:44.722Z,51.84
2023-02-23T15:27:24.746Z,50.58
2023-02-23T15:29:51.548Z,47.92
2023-02-23T15:32:26.509Z,48.69
2023-02-23T15:34:56.048Z,50.42
2023-02-23T15:37:28.919Z,58.79
2023-02-23T15:40:05.963Z,62.52
2023-02-23T15:42:43.000Z,69.98
2023-02-23T15:45:40.339Z,72.73
2023-02-23T15:48:18.249Z,79.28
2023-02-23T15:50:50.403Z,83.96
2023-02-23T15:53:26.437Z,85.63
2023-02-23T15:55:56.113Z,87.29
2023-02-23T15:58:27.941Z,90.57
2023-02-23T16:01:05.943Z,95.28
2023-02-23T16:03:38.468Z,96.10
2023-02-23T16:06:08.195Z,97.20
2023-02-23T16:08:36.890Z,100.00
2023-02-23T16:11:15.164Z,100.00
2023-02-23T16:13:46.077Z,100.00
2023-02-23T16:16:20.505Z,100.00
2023-02-23T16:18:53.804Z,100.00
2023-02-23T16:21:24.618Z,100.00
2023-02-23T16:23:54.977Z,100.00
2023-02-23T16:26:31.496Z,100.00
2023-02-23T16:29:00.600Z,100.00
2023-02-23T16:31:48.846Z,100.00
2023-02-23T16:34:49.303Z,100.00
2023-02-23T16:37:19.056Z,100.00
2023-02-23T16:39:45.897Z,100.00
2023-02-23T16:42:34.651Z,100.00
2023-02-23T16:45:02.107Z,100.00
2023-02-23T16:47:42.452Z,100.00
2023-02-23T16:50:21.849Z,100.00
2023-02-23T16:52:54.135Z,100.00
2023-02-23T16:55:26.524Z,100.00
2023-02-23T16:57:56.827Z,100.00
2023-02-23T17:00:29.724Z,100.00
2023-02-23T17:02:58.181Z,100.00
2023-02-23T17:05:25.021Z,100.00
2023-02-23T17:07:52.637Z,100.00
2023-02-23T17:10:26.089Z,100.00
2023-02-23T17:13:09.942Z,100.00
2023-02-23T17:15:42.017Z,100.00
2023-02-23T17:18:08.617Z,100.00
2023-02-23T17:20:35.203Z,100.00
2023-02-23T17:23:03.839Z,100.00
2023-02-23T17:25:30.546Z,100.00
2023-02-23T17:27:58.631Z,100.00
2023-02-23T17:30:26.405Z,100.00
2023-02-23T17:32:56.091Z,100.00
2023-02-23T17:35:23.312Z,100.00
2023-02-23T17:37:50.156Z,100.00
2023-02-23T17:40:26.149Z,100.00
2023-02-23T17:42:53.496Z,100.00
2023-02-23T17:45:20.153Z,100.00
2023-02-23T17:47:47.256Z,100.00
2023-02-23T17:50:14.068Z,100.00
2023-02-23T17:52:40.901Z,100.00
2023-02-23T17:55:09.396Z,100.00
2023-02-23T17:57:36.100Z,100.00
2023-02-23T18:00:03.861Z,100.00
2023-02-23T18:02:40.440Z,100.00
2023-02-23T18:05:08.475Z,100.00
2023-02-23T18:07:35.669Z,100.00
2023-02-23T18:10:03.130Z,100.00
2023-02-23T18:12:30.001Z,100.00
2023-02-23T18:14:57.424Z,100.00
2023-02-23T18:17:24.397Z,100.00
2023-02-23T18:19:51.292Z,100.00
2023-02-23T18:22:18.549Z,100.00
2023-02-23T18:24:45.545Z,100.00
2023-02-23T18:27:12.397Z,100.00
2023-02-23T18:29:39.181Z,100.00
2023-02-23T18:32:08.160Z,100.00
2023-02-23T18:34:35.322Z,100.00
2023-02-23T18:37:03.530Z,100.00
2023-02-23T18:39:33.210Z,100.00
2023-02-23T18:42:00.686Z,100.00
2023-02-23T18:44:27.533Z,100.00
2023-02-23T18:46:54.990Z,100.00
2023-02-23T18:49:24.138Z,100.00
2023-02-23T18:51:51.627Z,100.00
2023-02-23T18:54:18.770Z,100.00
2023-02-23T18:56:47.210Z,100.00
2023-02-23T18:59:14.840Z,100.00
2023-02-23T19:01:45.175Z,100.00
2023-02-23T19:04:13.038Z,100.00
2023-02-23T19:06:43.553Z,100.00
2023-02-23T19:09:12.661Z,100.00
2023-02-23T19:11:40.904Z,100.00
2023-02-23T19:14:16.025Z,100.00
2023-02-23T19:16:44.260Z,100.00
2023-02-23T19:19:11.127Z,100.00
2023-02-23T19:21:38.193Z,100.00
2023-02-23T19:24:06.223Z,100.00
2023-02-23T19:26:38.799Z,100.00
2023-02-23T19:29:05.978Z,100.00
2023-02-23T19:31:32.917Z,100.00
2023-02-23T19:34:03.274Z,100.00
2023-02-23T19:36:31.733Z,100.00
2023-02-23T19:39:06.035Z,100.00
2023-02-23T19:41:34.441Z,100.00
2023-02-23T19:44:01.604Z,100.00
2023-02-23T19:46:28.900Z,100.00
2023-02-23T19:48:56.229Z,100.00
2023-02-23T19:51:23.936Z,100.00
2023-02-23T19:53:54.708Z,100.00
2023-02-23T19:56:23.050Z,100.00
2023-02-23T19:58:49.774Z,100.00
2023-02-23T20:01:19.297Z,100.00
2023-02-23T20:03:55.115Z,100.00
2023-02-23T20:06:24.328Z,100.00
2023-02-23T20:08:52.504Z,100.00
2023-02-23T20:11:20.048Z,100.00
2023-02-23T20:13:46.795Z,100.00
2023-02-23T20:16:14.625Z,100.00
2023-02-23T20:18:42.415Z,100.00
2023-02-23T20:21:14.381Z,100.00
2023-02-23T20:23:42.654Z,100.00
2023-02-23T20:26:13.416Z,100.00
2023-02-23T20:28:40.857Z,100.00
2023-02-23T20:31:15.837Z,100.00
2023-02-23T20:33:42.777Z,100.00
2023-02-23T20:36:12.088Z,100.00
2023-02-23T20:38:39.140Z,100.00
2023-02-23T20:41:06.396Z,100.00
2023-02-23T20:43:33.067Z,100.00
2023-02-23T20:46:00.900Z,100.00
2023-02-23T20:48:28.888Z,100.00
2023-02-23T20:50:56.405Z,100.00
2023-02-23T20:53:25.298Z,100.00
2023-02-23T20:55:53.292Z,100.00
2023-02-23T20:58:25.135Z,100.00
2023-02-23T21:00:57.146Z,100.00
2023-02-23T21:03:25.116Z,100.00
2023-02-23T21:05:52.270Z,100.00
2023-02-23T21:08:20.006Z,100.00
2023-02-23T21:10:48.701Z,100.00
2023-02-23T21:13:16.135Z,100.00
2023-02-23T21:15:44.353Z,100.00
2023-02-23T21:18:11.559Z,100.00
2023-02-23T21:20:40.010Z,100.00
2023-02-23T21:23:06.843Z,100.00
2023-02-23T21:25:33.703Z,100.00
2023-02-23T21:28:02.096Z,100.00
2023-02-23T21:30:29.465Z,100.00
2023-02-23T21:32:57.472Z,100.00
2023-02-23T21:35:24.582Z,100.00
2023-02-23T21:37:51.903Z,100.00
2023-02-23T21:40:22.214Z,100.00
2023-02-23T21:42:50.856Z,100.00
2023-02-23T21:45:18.956Z,100.00
2023-02-23T21:47:46.649Z,100.00
2023-02-23T21:50:16.694Z,100.00
2023-02-23T21:52:46.734Z,100.00
2023-02-23T21:55:21.558Z,100.00
2023-02-23T21:57:49.386Z,100.00
2023-02-23T22:00:16.403Z,100.00
2023-02-23T22:02:46.248Z,100.00
2023-02-23T22:05:15.388Z,100.00
2023-02-23T22:07:48.464Z,100.00
2023-02-23T22:10:19.930Z,100.00
2023-02-23T22:12:46.589Z,100.00
2023-02-23T22:15:15.757Z,100.00
2023-02-23T22:17:43.915Z,100.00
2023-02-23T22:20:11.516Z,100.00
2023-02-23T22:22:38.073Z,100.00
2023-02-23T22:25:07.223Z,100.00
2023-02-23T22:27:33.922Z,100.00
2023-02-23T22:30:01.764Z,100.00
2023-02-23T22:32:33.248Z,100.00
2023-02-23T22:35:01.146Z,100.00
2023-02-23T22:37:32.068Z,100.00
2023-02-23T22:40:01.471Z,100.00
2023-02-23T22:42:35.296Z,100.00
2023-02-23T22:45:04.737Z,100.00
2023-02-23T22:47:33.865Z,100.00
2023-02-23T22:50:00.567Z,100.00
2023-02-23T22:52:29.804Z,100.00
2023-02-23T22:54:56.613Z,100.00
2023-02-23T22:57:23.512Z,100.00
2023-02-23T23:00:00.103Z,100.00
2023-02-23T23:02:32.262Z,100.00
2023-02-23T23:05:02.405Z,100.00
2023-02-23T23:07:31.090Z,100.00
2023-02-23T23:09:58.593Z,100.00
2023-02-23T23:12:27.825Z,100.00
2023-02-23T23:15:01.378Z,100.00
2023-02-23T23:17:29.691Z,100.00
2023-02-23T23:19:57.587Z,100.00
2023-02-23T23:22:25.204Z,100.00
2023-02-23T23:24:52.783Z,100.00
2023-02-23T23:27:20.594Z,100.00
2023-02-23T23:29:48.652Z,100.00
2023-02-23T23:32:17.534Z,100.00
2023-02-23T23:34:48.849Z,100.00
2023-02-23T23:37:18.032Z,100.00
2023-02-23T23:39:45.245Z,100.00
2023-02-23T23:42:12.033Z,100.00
2023-02-23T23:44:39.312Z,100.00
2023-02-23T23:47:06.377Z,100.00
2023-02-23T23:49:38.318Z,100.00
2023-02-23T23:52:05.530Z,100.00
2023-02-23T23:54:38.633Z,100.00
2023-02-23T23:57:06.371Z,100.00
2023-02-23T23:59:34.804Z,100.00
